createdAt,value
2023-02-08T00:02:26.731Z,-0.10
2023-02-08T00:04:54.700Z,-0.10
2023-02-08T00:07:22.589Z,-0.10
2023-02-08T00:09:50.495Z,-0.20
2023-02-08T00:12:19.889Z,-0.20
2023-02-08T00:14:47.823Z,-0.20
2023-02-08T00:17:15.703Z,-0.20
2023-02-08T00:19:43.823Z,-0.20
2023-02-08T00:22:11.771Z,-0.30
2023-02-08T00:24:39.877Z,-0.30
2023-02-08T00:27:07.771Z,-0.30
2023-02-08T00:29:37.238Z,-0.30
2023-02-08T00:32:05.644Z,-0.30
2023-02-08T00:34:35.133Z,-0.30
2023-02-08T00:37:03.233Z,-0.30
2023-02-08T00:39:31.767Z,-0.30
2023-02-08T00:41:59.786Z,-0.30
2023-02-08T00:44:27.820Z,-0.30
2023-02-08T00:46:57.297Z,-0.30
2023-02-08T00:49:25.222Z,-0.30
2023-02-08T00:51:53.115Z,-0.30
2023-02-08T00:54:22.284Z,-0.30
2023-02-08T00:56:50.214Z,-0.40
2023-02-08T00:59:18.118Z,-0.40
2023-02-08T01:01:46.165Z,-0.40
2023-02-08T01:04:15.456Z,-0.40
2023-02-08T01:06:43.331Z,-0.40
2023-02-08T01:09:11.209Z,-0.40
2023-02-08T01:11:39.578Z,-0.40
2023-02-08T01:14:07.449Z,-0.50
2023-02-08T01:16:35.671Z,-0.50
2023-02-08T01:19:05.157Z,-0.50
2023-02-08T01:21:36.120Z,-0.50
2023-02-08T01:24:05.169Z,-0.50
2023-02-08T01:26:33.895Z,-0.60
2023-02-08T01:29:02.401Z,-0.60
2023-02-08T01:31:32.710Z,-0.60
2023-02-08T01:34:01.757Z,-0.60
2023-02-08T01:36:30.978Z,-0.60
2023-02-08T01:39:00.419Z,-0.70
2023-02-08T01:41:34.183Z,-0.70
2023-02-08T01:44:06.770Z,-0.70
2023-02-08T01:46:36.173Z,-0.70
2023-02-08T01:49:08.875Z,-0.80
2023-02-08T01:51:40.356Z,-0.80
2023-02-08T01:54:12.254Z,-0.80
2023-02-08T01:56:43.251Z,-0.80
2023-02-08T01:59:15.543Z,-0.80
2023-02-08T02:01:45.042Z,-0.80
2023-02-08T02:04:13.524Z,-0.80
2023-02-08T02:06:46.372Z,-0.80
2023-02-08T02:09:21.857Z,-0.90
2023-02-08T02:11:50.960Z,-0.90
2023-02-08T02:14:19.033Z,-0.90
2023-02-08T02:16:46.987Z,-0.90
2023-02-08T02:19:22.188Z,-0.90
2023-02-08T02:22:02.516Z,-0.90
2023-02-08T02:25:07.931Z,-0.90
2023-02-08T02:28:04.097Z,-0.90
2023-02-08T02:30:45.332Z,-1.00
2023-02-08T02:33:36.473Z,-1.00
2023-02-08T02:36:10.101Z,-1.00
2023-02-08T02:38:49.783Z,-1.00
2023-02-08T02:41:41.180Z,-1.00
2023-02-08T02:44:17.361Z,-1.00
2023-02-08T02:46:51.447Z,-1.00
2023-02-08T02:49:28.464Z,-1.10
2023-02-08T02:52:01.701Z,-1.10
2023-02-08T02:54:35.412Z,-1.10
2023-02-08T02:57:06.384Z,-1.10
2023-02-08T02:59:35.835Z,-1.10
2023-02-08T03:02:04.783Z,-1.10
2023-02-08T03:05:06.964Z,-1.10
2023-02-08T03:07:51.431Z,-1.20
2023-02-08T03:10:34.135Z,-1.20
2023-02-08T03:13:14.170Z,-1.20
2023-02-08T03:15:49.851Z,-1.20
2023-02-08T03:18:27.371Z,-1.20
2023-02-08T03:21:03.273Z,-1.20
2023-02-08T03:23:37.164Z,-1.30
2023-02-08T03:26:11.992Z,-1.30
2023-02-08T03:28:47.936Z,-1.30
2023-02-08T03:31:23.257Z,-1.30
2023-02-08T03:33:57.300Z,-1.40
2023-02-08T03:36:33.068Z,-1.40
2023-02-08T03:39:05.821Z,-1.40
2023-02-08T03:41:39.627Z,-1.50
2023-02-08T03:44:12.426Z,-1.50
2023-02-08T03:46:43.507Z,-1.50
2023-02-08T03:49:16.678Z,-1.50
2023-02-08T03:51:47.353Z,-1.60
2023-02-08T03:54:18.535Z,-1.60
2023-02-08T03:56:49.608Z,-1.60
2023-02-08T03:59:22.705Z,-1.60
2023-02-08T04:01:56.547Z,-1.60
2023-02-08T04:04:25.681Z,-1.70
2023-02-08T04:06:55.259Z,-1.70
2023-02-08T04:09:23.172Z,-1.70
2023-02-08T04:11:51.076Z,-1.70
2023-02-08T04:14:19.009Z,-1.70
2023-02-08T04:16:46.887Z,-1.80
2023-02-08T04:19:14.732Z,-1.80
2023-02-08T04:21:42.597Z,-1.80
2023-02-08T04:24:11.916Z,-1.80
2023-02-08T04:26:39.873Z,-1.80
2023-02-08T04:29:07.814Z,-1.80
2023-02-08T04:31:35.841Z,-1.80
2023-02-08T04:34:03.775Z,-1.80
2023-02-08T04:36:32.162Z,-1.80
2023-02-08T04:39:00.066Z,-1.90
2023-02-08T04:41:29.381Z,-1.90
2023-02-08T04:43:57.229Z,-1.90
2023-02-08T04:46:25.221Z,-1.90
2023-02-08T04:48:53.125Z,-1.90
2023-02-08T04:51:21.323Z,-1.90
2023-02-08T04:53:49.201Z,-1.90
2023-02-08T04:56:17.093Z,-1.90
2023-02-08T04:58:46.541Z,-1.90
2023-02-08T05:01:16.430Z,-1.90
2023-02-08T05:03:44.568Z,-1.90
2023-02-08T05:06:12.494Z,-1.90
2023-02-08T05:08:40.389Z,-1.90
2023-02-08T05:11:08.321Z,-1.90
2023-02-08T05:13:36.352Z,-1.90
2023-02-08T05:16:06.153Z,-1.90
2023-02-08T05:18:34.133Z,-1.90
2023-02-08T05:21:03.941Z,-1.90
2023-02-08T05:23:33.333Z,-1.90
2023-02-08T05:26:01.576Z,-1.90
2023-02-08T05:28:29.442Z,-1.80
2023-02-08T05:30:57.408Z,-1.80
2023-02-08T05:33:26.844Z,-1.80
2023-02-08T05:35:54.800Z,-1.80
2023-02-08T05:38:24.856Z,-1.80
2023-02-08T05:40:52.761Z,-1.80
2023-02-08T05:43:20.596Z,-1.80
2023-02-08T05:45:48.489Z,-1.80
2023-02-08T05:48:16.533Z,-1.80
2023-02-08T05:50:45.928Z,-1.80
2023-02-08T05:53:13.810Z,-1.80
2023-02-08T05:55:44.923Z,-1.80
2023-02-08T05:58:13.020Z,-1.80
2023-02-08T06:00:41.190Z,-1.80
2023-02-08T06:03:09.241Z,-1.80
2023-02-08T06:05:41.184Z,-1.80
2023-02-08T06:08:11.176Z,-1.80
2023-02-08T06:10:39.528Z,-1.80
2023-02-08T06:13:07.724Z,-1.80
2023-02-08T06:15:35.736Z,-1.80
2023-02-08T06:18:03.682Z,-1.80
2023-02-08T06:20:31.628Z,-1.80
2023-02-08T06:22:59.601Z,-1.80
2023-02-08T06:25:28.946Z,-1.80
2023-02-08T06:27:57.597Z,-1.80
2023-02-08T06:30:25.881Z,-1.80
2023-02-08T06:32:54.042Z,-1.80
2023-02-08T06:35:21.944Z,-1.90
2023-02-08T06:37:50.173Z,-1.90
2023-02-08T06:40:18.218Z,-1.90
2023-02-08T06:42:47.921Z,-1.90
2023-02-08T06:45:15.864Z,-1.90
2023-02-08T06:47:43.800Z,-1.90
2023-02-08T06:50:12.260Z,-1.90
2023-02-08T06:52:40.120Z,-1.90
2023-02-08T06:55:08.368Z,-1.90
2023-02-08T06:57:36.235Z,-1.90
2023-02-08T07:00:06.820Z,-1.90
2023-02-08T07:02:34.754Z,-1.90
2023-02-08T07:05:02.729Z,-1.90
2023-02-08T07:07:30.628Z,-1.90
2023-02-08T07:09:59.614Z,-1.90
2023-02-08T07:12:27.522Z,-1.90
2023-02-08T07:14:55.413Z,-1.90
2023-02-08T07:17:24.620Z,-1.90
2023-02-08T07:19:52.513Z,-1.80
2023-02-08T07:22:20.824Z,-1.80
2023-02-08T07:24:48.806Z,-1.80
2023-02-08T07:27:16.914Z,-1.80
2023-02-08T07:29:44.842Z,-1.80
2023-02-08T07:32:13.500Z,-1.80
2023-02-08T07:34:42.895Z,-1.80
2023-02-08T07:37:10.820Z,-1.70
2023-02-08T07:39:38.750Z,-1.70
2023-02-08T07:42:06.894Z,-1.60
2023-02-08T07:44:35.021Z,-1.60
2023-02-08T07:47:03.099Z,-1.60
2023-02-08T07:49:31.177Z,-1.50
2023-02-08T07:52:00.548Z,-1.40
2023-02-08T07:54:28.923Z,-1.40
2023-02-08T07:56:56.914Z,-1.30
2023-02-08T07:59:27.492Z,-1.20
2023-02-08T08:01:55.399Z,-1.10
2023-02-08T08:04:23.412Z,-1.00
2023-02-08T08:06:51.543Z,-0.90
2023-02-08T08:09:21.324Z,-0.80
2023-02-08T08:11:49.247Z,-0.70
2023-02-08T08:14:17.186Z,-0.60
2023-02-08T08:16:45.076Z,-0.50
2023-02-08T08:19:12.998Z,-0.40
2023-02-08T08:21:40.918Z,-0.30
2023-02-08T08:24:08.916Z,-0.10
2023-02-08T08:26:38.134Z,0.00
2023-02-08T08:29:07.167Z,0.10
2023-02-08T08:31:35.054Z,0.30
2023-02-08T08:34:03.080Z,0.40
2023-02-08T08:36:31.501Z,0.60
2023-02-08T08:38:59.423Z,0.70
2023-02-08T08:41:28.516Z,0.80
2023-02-08T08:43:57.785Z,0.90
2023-02-08T08:46:25.886Z,1.10
2023-02-08T08:48:53.876Z,1.30
2023-02-08T08:51:21.927Z,1.40
2023-02-08T08:53:49.839Z,1.60
2023-02-08T08:56:17.857Z,1.70
2023-02-08T08:58:48.958Z,1.80
2023-02-08T09:01:18.365Z,2.00
2023-02-08T09:03:46.390Z,2.10
2023-02-08T09:06:14.387Z,2.40
2023-02-08T09:08:42.273Z,2.70
2023-02-08T09:11:12.954Z,3.10
2023-02-08T09:13:41.722Z,3.60
2023-02-08T09:16:11.757Z,4.20
2023-02-08T09:18:41.644Z,4.70
2023-02-08T09:21:11.557Z,5.40
2023-02-08T09:23:39.766Z,6.10
2023-02-08T09:26:09.465Z,6.80
2023-02-08T09:28:37.381Z,7.60
2023-02-08T09:31:09.399Z,8.40
2023-02-08T09:33:37.514Z,9.40
2023-02-08T09:36:07.708Z,10.30
2023-02-08T09:38:35.989Z,10.90
2023-02-08T09:41:21.321Z,11.50
2023-02-08T09:43:57.524Z,12.40
2023-02-08T09:46:29.911Z,13.10
2023-02-08T09:49:01.789Z,13.80
2023-02-08T09:51:36.902Z,14.20
2023-02-08T09:54:20.961Z,14.40
2023-02-08T09:56:50.048Z,14.60
2023-02-08T09:59:22.181Z,14.90
2023-02-08T10:01:51.541Z,15.30
2023-02-08T10:04:29.041Z,15.90
2023-02-08T10:06:58.354Z,16.30
2023-02-08T10:09:27.967Z,16.70
2023-02-08T10:12:06.202Z,17.00
2023-02-08T10:14:58.131Z,17.00
2023-02-08T10:17:46.176Z,16.80
2023-02-08T10:20:28.636Z,16.80
2023-02-08T10:23:07.023Z,17.00
2023-02-08T10:25:47.450Z,17.00
2023-02-08T10:28:31.359Z,17.60
2023-02-08T10:31:07.594Z,18.00
2023-02-08T10:33:44.015Z,18.10
2023-02-08T10:36:17.996Z,17.90
2023-02-08T10:41:37.663Z,17.30
2023-02-08T10:44:18.824Z,17.40
2023-02-08T10:46:56.466Z,17.30
2023-02-08T10:49:40.065Z,17.60
2023-02-08T10:52:09.407Z,17.90
2023-02-08T10:54:41.939Z,18.00
2023-02-08T10:57:15.512Z,18.20
2023-02-08T10:59:55.409Z,18.10
2023-02-08T11:02:35.732Z,18.30
2023-02-08T11:05:07.585Z,18.40
2023-02-08T11:07:39.828Z,18.70
2023-02-08T11:10:24.800Z,18.90
2023-02-08T11:13:01.341Z,19.30
2023-02-08T11:15:34.923Z,19.60
2023-02-08T11:18:10.085Z,19.80
2023-02-08T11:20:42.351Z,19.70
2023-02-08T11:23:24.904Z,19.50
2023-02-08T11:25:55.251Z,19.80
2023-02-08T11:28:29.661Z,20.30
2023-02-08T11:31:03.749Z,20.60
2023-02-08T11:33:33.167Z,20.90
2023-02-08T11:36:15.053Z,21.00
2023-02-08T11:38:44.432Z,21.30
2023-02-08T11:41:23.591Z,21.50
2023-02-08T11:44:05.557Z,21.80
2023-02-08T11:46:36.250Z,21.70
2023-02-08T11:49:04.625Z,21.40
2023-02-08T11:51:35.531Z,20.90
2023-02-08T11:54:04.417Z,20.50
2023-02-08T11:56:34.721Z,20.00
2023-02-08T11:59:18.498Z,19.80
2023-02-08T12:01:46.666Z,20.00
2023-02-08T12:04:16.564Z,20.20
2023-02-08T12:07:07.559Z,19.90
2023-02-08T12:10:17.852Z,19.50
2023-02-08T12:13:10.263Z,19.00
2023-02-08T12:15:58.353Z,17.90
2023-02-08T12:19:04.475Z,16.60
2023-02-08T12:21:39.031Z,15.50
2023-02-08T12:24:17.393Z,14.50
2023-02-08T12:27:01.485Z,13.60
2023-02-08T12:29:47.820Z,12.70
2023-02-08T12:32:28.640Z,11.80
2023-02-08T12:35:15.649Z,11.10
2023-02-08T12:38:08.514Z,10.50
2023-02-08T12:40:52.804Z,9.90
2023-02-08T12:43:38.730Z,9.40
2023-02-08T12:46:28.603Z,9.10
2023-02-08T12:49:17.044Z,8.90
2023-02-08T12:51:55.064Z,8.80
2023-02-08T12:54:31.653Z,8.80
2023-02-08T12:57:02.685Z,8.70
2023-02-08T12:59:36.834Z,8.70
2023-02-08T13:02:15.953Z,8.60
2023-02-08T13:04:47.126Z,8.50
2023-02-08T13:07:19.202Z,8.50
2023-02-08T13:09:53.195Z,8.50
2023-02-08T13:12:26.050Z,8.60
2023-02-08T13:14:55.963Z,8.70
2023-02-08T13:17:28.110Z,8.70
2023-02-08T13:20:01.567Z,8.70
2023-02-08T13:22:34.035Z,8.60
2023-02-08T13:25:08.445Z,8.60
2023-02-08T13:27:38.024Z,8.60
2023-02-08T13:30:07.602Z,8.60
2023-02-08T13:32:44.227Z,8.70
2023-02-08T13:35:17.055Z,8.70
2023-02-08T13:37:52.557Z,8.80
2023-02-08T13:40:27.829Z,8.90
2023-02-08T13:43:01.197Z,9.10
2023-02-08T13:45:34.289Z,9.20
2023-02-08T13:48:05.806Z,9.40
2023-02-08T13:50:47.622Z,9.50
2023-02-08T13:53:19.850Z,9.50
2023-02-08T13:56:08.215Z,9.60
2023-02-08T13:59:04.794Z,9.50
2023-02-08T14:01:35.608Z,9.40
2023-02-08T14:04:33.182Z,9.40
2023-02-08T14:07:06.947Z,9.50
2023-02-08T14:09:48.755Z,9.60
2023-02-08T14:12:24.776Z,9.70
2023-02-08T14:15:26.187Z,9.70
2023-02-08T14:17:58.254Z,9.60
2023-02-08T14:20:32.170Z,9.50
2023-02-08T14:23:02.744Z,9.40
2023-02-08T14:25:40.585Z,9.50
2023-02-08T14:28:22.869Z,9.50
2023-02-08T14:30:56.047Z,9.40
2023-02-08T14:33:27.996Z,9.40
2023-02-08T14:36:00.512Z,9.40
2023-02-08T14:39:16.414Z,9.50
2023-02-08T14:41:50.602Z,9.50
2023-02-08T14:44:55.144Z,9.50
2023-02-08T14:48:03.864Z,9.50
2023-02-08T14:50:39.796Z,9.60
2023-02-08T14:53:29.755Z,9.60
2023-02-08T14:56:04.013Z,9.60
2023-02-08T14:58:35.396Z,9.50
2023-02-08T15:01:07.889Z,9.50
2023-02-08T15:03:36.968Z,9.50
2023-02-08T15:06:31.988Z,9.30
2023-02-08T15:09:01.998Z,9.30
2023-02-08T15:11:33.294Z,9.30
2023-02-08T15:14:02.769Z,9.20
2023-02-08T15:16:35.129Z,9.20
2023-02-08T15:19:04.979Z,9.10
2023-02-08T15:21:36.686Z,8.90
2023-02-08T15:24:15.589Z,8.80
2023-02-08T15:26:47.812Z,8.70
2023-02-08T15:29:23.238Z,8.60
2023-02-08T15:31:55.059Z,8.40
2023-02-08T15:34:26.506Z,8.30
2023-02-08T15:36:56.304Z,8.20
2023-02-08T15:39:36.284Z,8.10
2023-02-08T15:42:04.274Z,8.00
2023-02-08T15:44:34.214Z,8.00
2023-02-08T15:47:05.260Z,7.90
2023-02-08T15:49:35.320Z,7.80
2023-02-08T15:52:04.359Z,7.70
2023-02-08T15:54:33.721Z,7.60
2023-02-08T15:57:07.123Z,7.50
2023-02-08T15:59:38.544Z,7.40
2023-02-08T16:02:23.239Z,7.40
2023-02-08T16:04:51.383Z,7.30
2023-02-08T16:07:26.582Z,7.20
2023-02-08T16:09:57.166Z,7.10
2023-02-08T16:12:26.880Z,7.00
2023-02-08T16:14:56.693Z,6.90
2023-02-08T16:17:37.859Z,6.80
2023-02-08T16:20:25.970Z,6.70
2023-02-08T16:22:57.776Z,6.60
2023-02-08T16:25:36.805Z,6.50
2023-02-08T16:28:06.085Z,6.40
2023-02-08T16:30:34.859Z,6.30
2023-02-08T16:33:08.477Z,6.20
2023-02-08T16:35:39.641Z,6.10
2023-02-08T16:38:10.245Z,6.00
2023-02-08T16:40:59.033Z,6.00
2023-02-08T16:43:28.705Z,5.90
2023-02-08T16:46:24.601Z,5.80
2023-02-08T16:48:54.823Z,5.70
2023-02-08T16:51:25.902Z,5.60
2023-02-08T16:53:57.532Z,5.50
2023-02-08T16:56:26.989Z,5.50
2023-02-08T16:58:54.989Z,5.50
2023-02-08T17:01:24.104Z,5.40
2023-02-08T17:03:53.058Z,5.30
2023-02-08T17:06:28.583Z,5.20
2023-02-08T17:08:56.606Z,5.20
2023-02-08T17:11:26.139Z,5.10
2023-02-08T17:13:54.215Z,5.10
2023-02-08T17:16:24.476Z,5.00
2023-02-08T17:18:52.663Z,5.00
2023-02-08T17:21:21.087Z,4.90
2023-02-08T17:23:49.098Z,4.90
2023-02-08T17:26:19.093Z,4.80
2023-02-08T17:28:50.173Z,4.80
2023-02-08T17:31:19.081Z,4.70
2023-02-08T17:33:47.204Z,4.70
2023-02-08T17:36:16.394Z,4.60
2023-02-08T17:38:45.977Z,4.60
2023-02-08T17:41:15.924Z,4.50
2023-02-08T17:43:44.007Z,4.50
2023-02-08T17:46:16.070Z,4.40
2023-02-08T17:48:44.751Z,4.40
2023-02-08T17:51:16.424Z,4.40
2023-02-08T17:53:44.908Z,4.30
2023-02-08T17:56:14.878Z,4.30
2023-02-08T17:58:43.199Z,4.30
2023-02-08T18:01:18.222Z,4.20
2023-02-08T18:03:46.663Z,4.10
2023-02-08T18:06:15.345Z,4.10
2023-02-08T18:08:43.732Z,4.00
2023-02-08T18:11:17.880Z,4.00
2023-02-08T18:13:46.078Z,4.00
2023-02-08T18:16:17.842Z,3.90
2023-02-08T18:18:46.206Z,3.90
2023-02-08T18:21:16.051Z,3.90
2023-02-08T18:23:44.544Z,3.80
2023-02-08T18:26:17.009Z,3.80
2023-02-08T18:28:45.153Z,3.80
2023-02-08T18:31:15.558Z,3.70
2023-02-08T18:33:45.095Z,3.70
2023-02-08T18:36:13.463Z,3.60
2023-02-08T18:38:45.458Z,3.60
2023-02-08T18:41:16.204Z,3.60
2023-02-08T18:43:44.279Z,3.50
2023-02-08T18:46:14.653Z,3.50
2023-02-08T18:48:44.710Z,3.50
2023-02-08T18:51:16.214Z,3.40
2023-02-08T18:53:46.704Z,3.40
2023-02-08T18:56:15.530Z,3.40
2023-02-08T18:58:43.754Z,3.30
2023-02-08T19:01:14.570Z,3.30
2023-02-08T19:03:44.881Z,3.20
2023-02-08T19:06:16.294Z,3.20
2023-02-08T19:08:45.727Z,3.10
2023-02-08T19:11:17.619Z,3.10
2023-02-08T19:13:46.157Z,3.00
2023-02-08T19:16:14.418Z,3.00
2023-02-08T19:18:43.753Z,2.90
2023-02-08T19:21:13.556Z,2.90
2023-02-08T19:23:41.419Z,2.80
2023-02-08T19:26:15.326Z,2.80
2023-02-08T19:28:43.508Z,2.80
2023-02-08T19:31:14.594Z,2.80
2023-02-08T19:33:45.977Z,2.70
2023-02-08T19:36:16.347Z,2.60
2023-02-08T19:38:44.944Z,2.60
2023-02-08T19:41:16.756Z,2.60
2023-02-08T19:43:45.136Z,2.50
2023-02-08T19:46:15.278Z,2.50
2023-02-08T19:48:43.329Z,2.50
2023-02-08T19:51:12.899Z,2.40
2023-02-08T19:53:40.861Z,2.40
2023-02-08T19:56:10.361Z,2.30
2023-02-08T19:58:38.471Z,2.30
2023-02-08T20:01:10.485Z,2.30
2023-02-08T20:03:38.505Z,2.20
2023-02-08T20:06:07.059Z,2.20
2023-02-08T20:08:36.299Z,2.10
2023-02-08T20:11:04.269Z,2.10
2023-02-08T20:13:34.551Z,2.10
2023-02-08T20:16:02.465Z,2.00
2023-02-08T20:18:30.452Z,2.00
2023-02-08T20:21:02.185Z,2.00
2023-02-08T20:23:31.853Z,1.90
2023-02-08T20:26:20.272Z,1.90
2023-02-08T20:28:51.392Z,1.90
2023-02-08T20:31:21.146Z,1.80
2023-02-08T20:33:49.467Z,1.80
2023-02-08T20:36:19.179Z,1.80
2023-02-08T20:38:48.954Z,1.70
2023-02-08T20:41:19.826Z,1.70
2023-02-08T20:43:48.388Z,1.70
2023-02-08T20:46:19.602Z,1.60
2023-02-08T20:48:47.615Z,1.60
2023-02-08T20:51:17.957Z,1.60
2023-02-08T20:53:47.922Z,1.50
2023-02-08T20:56:17.438Z,1.50
2023-02-08T20:58:47.137Z,1.50
2023-02-08T21:01:17.674Z,1.50
2023-02-08T21:03:46.256Z,1.40
2023-02-08T21:06:15.560Z,1.40
2023-02-08T21:08:44.353Z,1.40
2023-02-08T21:11:13.096Z,1.30
2023-02-08T21:13:40.970Z,1.30
2023-02-08T21:16:10.889Z,1.30
2023-02-08T21:18:39.434Z,1.30
2023-02-08T21:21:07.657Z,1.30
2023-02-08T21:23:36.630Z,1.20
2023-02-08T21:26:06.451Z,1.20
2023-02-08T21:28:34.958Z,1.20
2023-02-08T21:31:05.538Z,1.20
2023-02-08T21:33:35.370Z,1.20
2023-02-08T21:36:04.596Z,1.10
2023-02-08T21:38:32.532Z,1.10
2023-02-08T21:41:00.432Z,1.10
2023-02-08T21:43:28.394Z,1.10
2023-02-08T21:45:56.273Z,1.10
2023-02-08T21:48:24.166Z,1.10
2023-02-08T21:51:17.731Z,1.10
2023-02-08T21:54:12.923Z,1.10
2023-02-08T21:56:40.773Z,1.20
2023-02-08T21:59:08.635Z,1.10
2023-02-08T22:01:36.560Z,1.10
2023-02-08T22:04:04.433Z,1.10
2023-02-08T22:06:48.741Z,1.10
2023-02-08T22:09:19.112Z,1.10
2023-02-08T22:11:48.919Z,1.00
2023-02-08T22:14:17.104Z,1.00
2023-02-08T22:16:45.017Z,1.00
2023-02-08T22:19:12.921Z,1.00
2023-02-08T22:21:42.257Z,1.00
2023-02-08T22:24:10.163Z,1.00
2023-02-08T22:26:38.101Z,1.00
2023-02-08T22:29:06.015Z,1.00
2023-02-08T22:31:34.063Z,1.00
2023-02-08T22:34:02.033Z,1.00
2023-02-08T22:36:29.956Z,0.90
2023-02-08T22:38:59.223Z,0.90
2023-02-08T22:41:27.268Z,0.90
2023-02-08T22:43:55.260Z,0.90
2023-02-08T22:46:23.323Z,0.80
2023-02-08T22:48:51.273Z,0.80
2023-02-08T22:51:20.333Z,0.80
2023-02-08T22:53:48.554Z,0.80
2023-02-08T22:56:19.113Z,0.70
2023-02-08T22:58:46.948Z,0.70
2023-02-08T23:01:17.089Z,0.70
2023-02-08T23:03:45.185Z,0.60
2023-02-08T23:06:17.065Z,0.60
2023-02-08T23:08:45.570Z,0.60
2023-02-08T23:11:15.601Z,0.60
2023-02-08T23:13:44.869Z,0.50
2023-02-08T23:16:13.647Z,0.50
2023-02-08T23:18:41.795Z,0.40
2023-02-08T23:21:11.249Z,0.40
2023-02-08T23:23:39.281Z,0.40
2023-02-08T23:26:08.163Z,0.40
2023-02-08T23:28:36.116Z,0.40
2023-02-08T23:31:07.888Z,0.30
2023-02-08T23:33:36.519Z,0.30
2023-02-08T23:36:06.693Z,0.30
2023-02-08T23:38:34.717Z,0.30
2023-02-08T23:41:04.400Z,0.30
2023-02-08T23:43:32.497Z,0.30
2023-02-08T23:46:00.907Z,0.30
2023-02-08T23:48:30.159Z,0.30
2023-02-08T23:50:58.613Z,0.30
2023-02-08T23:53:30.098Z,0.30
2023-02-08T23:56:12.419Z,0.30
2023-02-08T23:58:40.713Z,0.30
